Time;durP1;ratioP1;P1;durP2;ratioP2;P2;SDS_P1;SDS_P2;PMS_P1;PMS_P2;Temp;Humidity;BMP_temperature;BMP_pressure;BME280_temperature;BME280_humidity;BME280_pressure;Samples;Min_cycle;Max_cycle;Signal;HPM_P1;HPM_P2
2023/04/09 00:02:16;;;;;;;95.72;56.00;;;;;;;;;;5080317;28;20040;-78
2023/04/09 00:04:42;;;;;;;88.20;54.60;;;;;;;;;;5095437;28;20044;-77
2023/04/09 00:07:08;;;;;;;92.35;56.35;;;;;;;;;;5093851;28;20397;-77
2023/04/09 00:09:34;;;;;;;87.15;55.15;;;;;;;;;;5076169;28;20051;-77
2023/04/09 00:12:00;;;;;;;93.20;56.17;;;;;;;;;;5076292;28;20102;-77
2023/04/09 00:14:27;;;;;;;86.15;52.45;;;;;;;;;;5080536;28;20046;-77
2023/04/09 00:16:53;;;;;;;87.85;51.22;;;;;;;;;;5095736;28;20055;-77
2023/04/09 00:19:19;;;;;;;88.30;50.95;;;;;;;;;;5096112;28;20052;-75
2023/04/09 00:21:45;;;;;;;91.13;51.35;;;;;;;;;;5095944;28;20517;-77
2023/04/09 00:24:12;;;;;;;86.63;49.53;;;;;;;;;;5092478;28;20067;-76
2023/04/09 00:26:38;;;;;;;80.97;45.88;;;;;;;;;;5076310;28;20040;-76
2023/04/09 00:29:04;;;;;;;88.72;49.15;;;;;;;;;;5089548;28;20044;-77
2023/04/09 00:31:30;;;;;;;81.47;47.60;;;;;;;;;;5095830;28;20482;-76
2023/04/09 00:33:56;;;;;;;83.75;48.15;;;;;;;;;;5094441;28;20140;-77
2023/04/09 00:36:22;;;;;;;83.78;45.53;;;;;;;;;;5094833;28;20076;-77
2023/04/09 00:38:49;;;;;;;78.88;46.10;;;;;;;;;;5094882;28;20047;-77
2023/04/09 00:41:16;;;;;;;76.80;43.47;;;;;;;;;;5095309;28;20498;-77
2023/04/09 00:43:43;;;;;;;73.63;43.72;;;;;;;;;;5095633;28;20162;-77
2023/04/09 00:46:09;;;;;;;72.03;41.92;;;;;;;;;;5093989;28;20165;-76
2023/04/09 00:48:35;;;;;;;75.30;40.97;;;;;;;;;;5075478;28;20087;-76
2023/04/09 00:51:01;;;;;;;73.93;41.67;;;;;;;;;;5073140;28;20044;-76
2023/04/09 00:53:27;;;;;;;72.82;39.85;;;;;;;;;;5073910;28;20052;-77
2023/04/09 00:55:54;;;;;;;70.93;40.45;;;;;;;;;;5075221;28;20045;-77
2023/04/09 00:58:20;;;;;;;72.68;40.20;;;;;;;;;;5073971;28;20086;-76
2023/04/09 01:00:46;;;;;;;65.45;37.58;;;;;;;;;;5074888;28;20056;-76
2023/04/09 01:03:13;;;;;;;67.80;38.25;;;;;;;;;;5094598;28;20047;-76
2023/04/09 01:05:54;;;;;;;62.55;36.47;;;;;;;;;;5085595;28;20387;-77
2023/04/09 01:08:30;;;;;;;63.28;37.40;;;;;;;;;;5095382;28;20051;-76
2023/04/09 01:10:56;;;;;;;;;;;;;;;;;;5075854;28;20044;-76
2023/04/09 01:13:30;;;;;;;65.32;36.92;;;;;;;;;;5074816;28;19966;-76
2023/04/09 01:15:58;;;;;;;65.43;36.45;;;;;;;;;;5075430;28;20056;-77
2023/04/09 01:18:35;;;;;;;67.40;37.53;;;;;;;;;;5074719;28;20048;-75
2023/04/09 01:21:22;;;;;;;70.03;39.47;;;;;;;;;;5075183;28;20086;-77
2023/04/09 01:23:59;;;;;;;64.90;35.95;;;;;;;;;;5075119;28;20052;-77
2023/04/09 01:26:35;;;;;;;68.53;38.05;;;;;;;;;;5074601;28;20094;-77
2023/04/09 01:29:02;;;;;;;67.43;38.13;;;;;;;;;;5074371;28;20055;-77
2023/04/09 01:31:33;;;;;;;63.88;35.40;;;;;;;;;;5074874;28;20505;-77
2023/04/09 01:34:00;;;;;;;65.60;37.25;;;;;;;;;;5088764;28;20036;-77
2023/04/09 01:36:28;;;;;;;67.38;36.58;;;;;;;;;;5095145;28;20097;-77
2023/04/09 01:38:55;;;;;;;72.18;36.72;;;;;;;;;;5095284;28;20127;-77
2023/04/09 01:41:21;;;;;;;71.07;37.08;;;;;;;;;;5094744;28;20048;-75
2023/04/09 01:43:49;;;;;;;67.38;36.72;;;;;;;;;;5082495;28;20397;-76
2023/04/09 01:46:15;;;;;;;67.93;36.28;;;;;;;;;;5074092;28;20040;-77
2023/04/09 01:48:42;;;;;;;83.35;40.53;;;;;;;;;;5074665;28;20045;-77
2023/04/09 01:51:08;;;;;;;75.60;39.28;;;;;;;;;;5074667;28;20097;-76
2023/04/09 01:53:34;;;;;;;82.53;39.38;;;;;;;;;;5085370;28;20040;-78
2023/04/09 01:56:00;;;;;;;80.63;38.35;;;;;;;;;;5094829;28;20043;-77
2023/04/09 01:58:27;;;;;;;79.78;39.97;;;;;;;;;;5094177;28;20032;-77
2023/04/09 02:00:56;;;;;;;74.85;38.85;;;;;;;;;;5094236;28;20501;-77
2023/04/09 02:03:29;;;;;;;82.15;39.55;;;;;;;;;;5094696;28;20086;-76
2023/04/09 02:06:00;;;;;;;83.70;40.38;;;;;;;;;;5089408;28;20041;-77
2023/04/09 02:08:27;;;;;;;78.38;38.60;;;;;;;;;;5078731;28;20072;-76
2023/04/09 02:10:56;;;;;;;81.35;39.58;;;;;;;;;;5074111;28;20124;-76
2023/04/09 02:13:22;;;;;;;79.35;38.28;;;;;;;;;;5074163;28;20040;-76
2023/04/09 02:15:49;;;;;;;82.13;38.65;;;;;;;;;;5073686;28;20098;-77
2023/04/09 02:18:23;;;;;;;78.20;37.22;;;;;;;;;;5072450;28;20056;-77
2023/04/09 02:20:49;;;;;;;74.18;37.13;;;;;;;;;;5073922;28;20119;-77
2023/04/09 02:23:16;;;;;;;71.53;37.20;;;;;;;;;;5085781;28;20065;-77
2023/04/09 02:25:43;;;;;;;82.50;38.10;;;;;;;;;;5094053;28;20043;-77
2023/04/09 02:28:09;;;;;;;74.40;37.28;;;;;;;;;;5094034;28;20079;-77
2023/04/09 02:30:35;;;;;;;79.03;36.05;;;;;;;;;;5093638;28;20040;-78
2023/04/09 02:33:01;;;;;;;77.68;37.63;;;;;;;;;;5094030;28;20367;-77
2023/04/09 02:35:27;;;;;;;72.95;35.03;;;;;;;;;;5083906;28;20044;-77
2023/04/09 02:37:54;;;;;;;71.70;35.47;;;;;;;;;;5072095;28;20076;-77
2023/04/09 02:40:20;;;;;;;68.32;34.22;;;;;;;;;;5078254;28;20097;-77
2023/04/09 02:42:46;;;;;;;76.53;36.55;;;;;;;;;;5093723;28;20040;-76
2023/04/09 02:45:12;;;;;;;77.72;36.17;;;;;;;;;;5093909;28;20127;-77
2023/04/09 02:47:38;;;;;;;77.93;35.28;;;;;;;;;;5093580;28;20040;-76
2023/04/09 02:50:05;;;;;;;77.93;35.13;;;;;;;;;;5093974;28;20050;-77
2023/04/09 02:52:31;;;;;;;71.47;34.83;;;;;;;;;;5093544;28;20043;-77
2023/04/09 02:54:57;;;;;;;75.43;35.28;;;;;;;;;;5093356;28;20076;-77
2023/04/09 02:57:23;;;;;;;70.63;32.72;;;;;;;;;;5088530;28;20048;-77
2023/04/09 02:59:49;;;;;;;67.47;31.80;;;;;;;;;;5072953;28;20126;-77
2023/04/09 03:02:15;;;;;;;62.92;32.72;;;;;;;;;;5072727;28;20040;-76
2023/04/09 03:04:41;;;;;;;67.43;33.05;;;;;;;;;;5073149;28;20037;-76
2023/04/09 03:07:07;;;;;;;67.40;31.73;;;;;;;;;;5073315;28;20071;-77
2023/04/09 03:09:33;;;;;;;60.47;30.25;;;;;;;;;;5071784;28;20044;-77
2023/04/09 03:12:00;;;;;;;57.13;28.15;;;;;;;;;;5072281;28;20098;-77
2023/04/09 03:14:27;;;;;;;59.42;29.05;;;;;;;;;;5090929;28;20447;-77
2023/04/09 03:16:53;;;;;;;59.75;29.30;;;;;;;;;;5091650;28;20063;-77
2023/04/09 03:19:19;;;;;;;67.05;29.95;;;;;;;;;;5077388;28;20154;-77
2023/04/09 03:21:48;;;;;;;66.00;30.45;;;;;;;;;;5077608;28;20111;-76
2023/04/09 03:24:14;;;;;;;68.18;32.88;;;;;;;;;;5075293;28;20055;-77
2023/04/09 03:26:40;;;;;;;65.70;31.95;;;;;;;;;;5075514;28;20170;-77
2023/04/09 03:29:07;;;;;;;67.13;31.00;;;;;;;;;;5063380;28;20048;-77
2023/04/09 03:31:33;;;;;;;70.60;30.67;;;;;;;;;;5068181;28;20036;-77
2023/04/09 03:33:59;;;;;;;61.55;30.80;;;;;;;;;;5087503;28;20052;-77
2023/04/09 03:36:26;;;;;;;57.22;28.52;;;;;;;;;;5082296;28;20055;-76
2023/04/09 03:38:53;;;;;;;64.70;29.92;;;;;;;;;;5084302;28;20128;-76
2023/04/09 03:41:19;;;;;;;61.03;29.95;;;;;;;;;;5076813;28;20044;-78
2023/04/09 03:43:45;;;;;;;59.38;29.60;;;;;;;;;;5076192;28;20041;-76
2023/04/09 03:46:15;;;;;;;64.38;31.13;;;;;;;;;;5076634;28;20049;-77
2023/04/09 03:48:41;;;;;;;64.07;29.52;;;;;;;;;;5076919;28;20041;-76
2023/04/09 03:51:10;;;;;;;58.95;27.77;;;;;;;;;;5076930;28;20493;-77
2023/04/09 03:53:36;;;;;;;66.53;31.13;;;;;;;;;;5102932;28;20047;-77
2023/04/09 03:56:03;;;;;;;58.08;29.20;;;;;;;;;;5117176;28;20454;-77
2023/04/09 03:58:29;;;;;;;58.90;28.58;;;;;;;;;;5104639;28;20068;-76
2023/04/09 04:00:55;;;;;;;66.03;29.88;;;;;;;;;;5096184;28;20040;-76
2023/04/09 04:03:21;;;;;;;61.97;28.92;;;;;;;;;;5095911;28;20036;-77
2023/04/09 04:05:47;;;;;;;59.92;29.13;;;;;;;;;;5096155;28;20044;-76
2023/04/09 04:08:13;;;;;;;59.10;30.00;;;;;;;;;;5087809;28;20405;-77
2023/04/09 04:10:39;;;;;;;63.85;29.95;;;;;;;;;;5058353;28;20049;-77
2023/04/09 04:13:08;;;;;;;63.63;30.05;;;;;;;;;;5085353;28;20118;-78
2023/04/09 04:15:40;;;;;;;63.88;29.67;;;;;;;;;;5095913;28;20050;-76
2023/04/09 04:18:06;;;;;;;66.07;29.73;;;;;;;;;;5093306;28;20105;-77
2023/04/09 04:20:35;;;;;;;60.70;28.90;;;;;;;;;;5074176;28;20045;-77
2023/04/09 04:23:01;;;;;;;61.50;27.92;;;;;;;;;;5099855;28;20056;-77
2023/04/09 04:25:28;;;;;;;55.67;27.92;;;;;;;;;;5075480;28;20048;-77
2023/04/09 04:27:54;;;;;;;61.15;28.98;;;;;;;;;;5074112;28;20425;-77
2023/04/09 04:30:23;;;;;;;61.65;28.10;;;;;;;;;;5075767;28;20394;-77
2023/04/09 04:32:49;;;;;;;56.95;28.33;;;;;;;;;;5075876;28;20075;-78
2023/04/09 04:35:15;;;;;;;58.08;28.08;;;;;;;;;;5074729;28;20059;-77
2023/04/09 04:37:41;;;;;;;60.60;29.58;;;;;;;;;;5075826;28;20045;-77
2023/04/09 04:40:08;;;;;;;59.92;28.80;;;;;;;;;;5081535;28;20093;-77
2023/04/09 04:42:34;;;;;;;62.13;29.52;;;;;;;;;;5082134;28;20040;-77
2023/04/09 04:45:00;;;;;;;59.40;28.80;;;;;;;;;;5095547;28;20047;-77
2023/04/09 04:47:26;;;;;;;59.63;29.52;;;;;;;;;;5094334;28;20043;-77
2023/04/09 04:49:53;;;;;;;55.95;29.50;;;;;;;;;;5095723;28;20070;-77
2023/04/09 04:52:19;;;;;;;60.40;29.38;;;;;;;;;;5094573;28;20048;-76
2023/04/09 04:54:45;;;;;;;65.50;29.90;;;;;;;;;;5095085;28;20040;-76
2023/04/09 04:57:11;;;;;;;66.32;30.52;;;;;;;;;;5091099;28;20494;-77
2023/04/09 04:59:38;;;;;;;58.63;29.70;;;;;;;;;;5095400;28;20500;-77
2023/04/09 05:02:05;;;;;;;59.13;29.10;;;;;;;;;;5095099;28;20040;-76
2023/04/09 05:04:31;;;;;;;55.47;27.65;;;;;;;;;;5095233;28;20122;-76
2023/04/09 05:06:57;;;;;;;56.67;27.52;;;;;;;;;;5095990;28;20067;-76
2023/04/09 05:09:23;;;;;;;56.83;28.05;;;;;;;;;;5098243;28;20484;-77
2023/04/09 05:11:49;;;;;;;55.13;28.55;;;;;;;;;;5083712;28;20568;-77
2023/04/09 05:14:15;;;;;;;56.38;27.63;;;;;;;;;;5095907;28;20079;-77
2023/04/09 05:16:41;;;;;;;50.13;26.10;;;;;;;;;;5095189;28;20079;-77
2023/04/09 05:19:07;;;;;;;51.35;26.17;;;;;;;;;;5095471;28;20048;-77
2023/04/09 05:21:33;;;;;;;56.30;27.67;;;;;;;;;;5095404;28;20063;-77
2023/04/09 05:23:59;;;;;;;54.35;27.35;;;;;;;;;;5094751;28;20098;-77
2023/04/09 05:26:26;;;;;;;48.78;25.52;;;;;;;;;;5082349;28;20048;-77
2023/04/09 05:28:52;;;;;;;54.92;25.73;;;;;;;;;;5095130;28;20044;-77
2023/04/09 05:31:18;;;;;;;52.90;26.35;;;;;;;;;;5093602;28;20429;-78
2023/04/09 05:33:45;;;;;;;52.42;27.17;;;;;;;;;;5094904;28;20048;-78
2023/04/09 05:36:17;;;;;;;51.17;25.65;;;;;;;;;;5095032;28;20122;-78
2023/04/09 05:38:44;;;;;;;49.13;26.40;;;;;;;;;;5090533;28;20042;-77
2023/04/09 05:41:10;;;;;;;49.33;25.05;;;;;;;;;;5074982;28;20482;-77
2023/04/09 05:43:36;;;;;;;47.97;24.90;;;;;;;;;;5086480;28;20043;-77
2023/04/09 05:46:02;;;;;;;46.40;23.95;;;;;;;;;;5094553;28;20040;-77
2023/04/09 05:48:29;;;;;;;45.53;23.70;;;;;;;;;;5095089;28;20078;-77
2023/04/09 05:50:55;;;;;;;46.83;23.88;;;;;;;;;;5090786;28;20062;-77
2023/04/09 05:53:24;;;;;;;42.13;23.13;;;;;;;;;;5095410;28;20055;-77
2023/04/09 05:55:50;;;;;;;45.25;23.35;;;;;;;;;;5075771;28;20051;-79
2023/04/09 05:58:17;;;;;;;42.65;23.83;;;;;;;;;;5074301;28;20047;-77
2023/04/09 06:00:43;;;;;;;45.53;23.75;;;;;;;;;;5074352;28;20044;-78
2023/04/09 06:03:12;;;;;;;44.92;23.35;;;;;;;;;;5073929;28;20052;-77
2023/04/09 06:05:38;;;;;;;40.85;22.50;;;;;;;;;;5074147;28;20467;-77
2023/04/09 06:08:04;;;;;;;43.22;22.30;;;;;;;;;;5072525;28;20051;-77
2023/04/09 06:10:33;;;;;;;43.28;23.42;;;;;;;;;;5073539;28;20135;-77
2023/04/09 06:13:04;;;;;;;38.67;21.58;;;;;;;;;;5073709;28;20505;-77
2023/04/09 06:15:33;;;;;;;45.15;23.50;;;;;;;;;;5055402;28;20517;-77
2023/04/09 06:18:00;;;;;;;42.25;22.63;;;;;;;;;;5083844;28;20102;-77
2023/04/09 06:20:29;;;;;;;45.55;23.42;;;;;;;;;;5093874;28;20059;-77
2023/04/09 06:22:58;;;;;;;43.30;21.63;;;;;;;;;;5079469;28;20089;-77
2023/04/09 06:25:24;;;;;;;42.45;22.80;;;;;;;;;;5072298;28;20127;-77
2023/04/09 06:27:50;;;;;;;43.25;22.05;;;;;;;;;;5072561;28;20056;-77
2023/04/09 06:30:16;;;;;;;42.72;22.15;;;;;;;;;;5073350;28;20527;-77
2023/04/09 06:32:44;;;;;;;42.15;23.02;;;;;;;;;;5076482;28;20044;-77
2023/04/09 06:35:10;;;;;;;39.55;21.13;;;;;;;;;;5071952;28;20049;-77
2023/04/09 06:37:36;;;;;;;35.80;20.73;;;;;;;;;;5073341;28;20048;-77
2023/04/09 06:40:02;;;;;;;35.60;20.60;;;;;;;;;;5073218;28;20041;-77
2023/04/09 06:42:28;;;;;;;35.03;20.05;;;;;;;;;;5074171;28;20044;-77
2023/04/09 06:44:54;;;;;;;33.40;19.92;;;;;;;;;;5072517;28;20094;-77
2023/04/09 06:47:23;;;;;;;38.88;21.45;;;;;;;;;;5073377;28;20040;-77
2023/04/09 06:49:49;;;;;;;34.95;20.83;;;;;;;;;;5054491;28;20554;-76
2023/04/09 06:52:15;;;;;;;33.72;19.00;;;;;;;;;;5075518;28;20049;-77
2023/04/09 06:54:41;;;;;;;33.35;20.38;;;;;;;;;;5092486;28;20131;-76
2023/04/09 06:57:10;;;;;;;37.20;20.67;;;;;;;;;;5093788;28;20048;-77
2023/04/09 06:59:36;;;;;;;30.95;18.45;;;;;;;;;;5093905;28;20040;-77
2023/04/09 07:02:02;;;;;;;30.67;18.45;;;;;;;;;;5073585;28;20433;-77
2023/04/09 07:04:28;;;;;;;31.05;17.88;;;;;;;;;;5072948;28;20568;-77
2023/04/09 07:06:58;;;;;;;29.40;17.33;;;;;;;;;;5072897;28;20495;-77
2023/04/09 07:09:34;;;;;;;30.13;17.45;;;;;;;;;;5073522;28;20048;-77
2023/04/09 07:12:00;;;;;;;31.35;18.05;;;;;;;;;;5072291;28;20123;-77
2023/04/09 07:14:26;;;;;;;30.90;17.35;;;;;;;;;;5071598;28;20452;-78
2023/04/09 07:16:55;;;;;;;27.63;17.15;;;;;;;;;;5078293;28;20069;-78
2023/04/09 07:19:23;;;;;;;28.55;17.45;;;;;;;;;;5099334;28;20044;-78
2023/04/09 07:21:49;;;;;;;29.38;17.05;;;;;;;;;;5090440;28;20036;-77
2023/04/09 07:24:15;;;;;;;30.30;18.50;;;;;;;;;;5092775;28;20402;-76
2023/04/09 07:26:42;;;;;;;28.17;17.38;;;;;;;;;;5088060;28;20490;-77
2023/04/09 07:29:08;;;;;;;26.67;17.48;;;;;;;;;;5088860;28;20472;-76
2023/04/09 07:31:34;;;;;;;30.08;18.60;;;;;;;;;;5091921;28;20044;-77
2023/04/09 07:34:01;;;;;;;27.65;16.77;;;;;;;;;;5070918;28;20056;-78
2023/04/09 07:36:27;;;;;;;29.60;18.38;;;;;;;;;;5083295;28;20108;-77
2023/04/09 07:38:53;;;;;;;29.75;18.63;;;;;;;;;;5073529;28;20044;-77
2023/04/09 07:41:19;;;;;;;28.55;18.15;;;;;;;;;;5073795;28;20076;-78
2023/04/09 07:43:46;;;;;;;30.77;19.02;;;;;;;;;;5076688;28;20490;-78
2023/04/09 07:46:17;;;;;;;33.55;19.00;;;;;;;;;;5086618;28;20091;-76
2023/04/09 07:48:43;;;;;;;33.30;19.80;;;;;;;;;;5073066;28;20040;-77
2023/04/09 07:51:10;;;;;;;32.00;18.85;;;;;;;;;;5072400;28;20398;-76
2023/04/09 07:53:36;;;;;;;30.08;18.00;;;;;;;;;;5073226;28;20102;-76
2023/04/09 07:56:02;;;;;;;32.72;18.02;;;;;;;;;;5054969;28;20048;-76
2023/04/09 07:58:28;;;;;;;31.63;19.15;;;;;;;;;;5071719;28;20041;-76
2023/04/09 08:00:54;;;;;;;33.47;19.52;;;;;;;;;;5076630;28;20067;-76
2023/04/09 08:03:21;;;;;;;31.95;18.38;;;;;;;;;;5074827;28;20056;-76
2023/04/09 08:05:47;;;;;;;32.03;19.25;;;;;;;;;;5076942;28;20048;-76
2023/04/09 08:08:13;;;;;;;30.17;18.88;;;;;;;;;;5075687;28;20162;-76
2023/04/09 08:10:39;;;;;;;31.83;18.90;;;;;;;;;;5076330;28;20037;-76
2023/04/09 08:13:05;;;;;;;30.98;20.25;;;;;;;;;;5074958;28;20471;-76
2023/04/09 08:15:32;;;;;;;30.60;18.13;;;;;;;;;;5081601;28;20051;-75
2023/04/09 08:17:58;;;;;;;31.92;19.92;;;;;;;;;;5082591;28;20052;-75
2023/04/09 08:20:24;;;;;;;34.92;20.02;;;;;;;;;;5088023;28;20048;-76
2023/04/09 08:22:50;;;;;;;33.88;20.05;;;;;;;;;;5096869;28;20083;-75
2023/04/09 08:25:16;;;;;;;31.67;18.85;;;;;;;;;;5096330;28;20048;-75
2023/04/09 08:27:42;;;;;;;33.47;19.38;;;;;;;;;;5083179;28;20076;-77
2023/04/09 08:30:09;;;;;;;30.80;19.33;;;;;;;;;;5076147;28;20075;-76
2023/04/09 08:32:35;;;;;;;32.47;18.90;;;;;;;;;;5074776;28;20052;-76
2023/04/09 08:35:01;;;;;;;30.38;20.08;;;;;;;;;;5091756;28;20040;-76
2023/04/09 08:37:28;;;;;;;29.23;18.15;;;;;;;;;;5074640;28;20055;-76
2023/04/09 08:39:54;;;;;;;33.42;18.67;;;;;;;;;;5093021;28;20102;-75
2023/04/09 08:42:22;;;;;;;27.98;17.88;;;;;;;;;;5094329;28;20391;-76
2023/04/09 08:44:49;;;;;;;33.47;19.48;;;;;;;;;;5096039;28;20040;-75
2023/04/09 08:47:16;;;;;;;32.03;18.48;;;;;;;;;;5095497;28;20478;-75
2023/04/09 08:49:42;;;;;;;31.25;18.80;;;;;;;;;;5077968;28;20120;-76
2023/04/09 08:52:08;;;;;;;32.33;19.20;;;;;;;;;;5074024;28;20398;-76
2023/04/09 08:54:34;;;;;;;31.52;19.60;;;;;;;;;;5085512;28;20501;-76
2023/04/09 08:57:04;;;;;;;33.08;20.00;;;;;;;;;;5075487;28;20052;-75
2023/04/09 08:59:30;;;;;;;31.08;19.80;;;;;;;;;;5075553;28;20045;-75
2023/04/09 09:02:11;;;;;;;32.40;19.83;;;;;;;;;;5084215;28;20482;-75
2023/04/09 09:04:47;;;;;;;30.92;18.90;;;;;;;;;;5075546;28;20051;-75
2023/04/09 09:07:14;;;;;;;32.60;19.67;;;;;;;;;;5073874;28;20086;-76
2023/04/09 09:09:52;;;;;;;34.03;20.35;;;;;;;;;;5075169;28;20470;-76
2023/04/09 09:12:37;;;;;;;30.65;19.08;;;;;;;;;;5074052;28;20049;-75
2023/04/09 09:15:05;;;;;;;28.88;19.15;;;;;;;;;;5075208;28;20043;-76
2023/04/09 09:17:31;;;;;;;29.38;18.75;;;;;;;;;;5074645;28;20052;-76
2023/04/09 09:19:57;;;;;;;34.22;19.42;;;;;;;;;;5075114;28;20414;-76
2023/04/09 09:22:24;;;;;;;31.15;19.20;;;;;;;;;;5076436;28;20486;-76
2023/04/09 09:24:51;;;;;;;31.73;19.77;;;;;;;;;;5087382;28;20044;-75
2023/04/09 09:27:35;;;;;;;32.50;19.73;;;;;;;;;;5074548;28;20044;-76
2023/04/09 09:30:05;;;;;;;32.22;18.70;;;;;;;;;;5087777;28;20048;-78
2023/04/09 09:32:34;;;;;;;35.65;19.45;;;;;;;;;;5082006;28;20078;-77
2023/04/09 09:35:05;;;;;;;34.70;19.20;;;;;;;;;;5078860;28;20093;-76
2023/04/09 09:37:31;;;;;;;33.40;19.55;;;;;;;;;;5083915;28;20123;-77
2023/04/09 09:39:57;;;;;;;30.42;17.75;;;;;;;;;;5094736;28;20039;-76
2023/04/09 09:42:25;;;;;;;28.90;18.33;;;;;;;;;;5080341;28;20041;-78
2023/04/09 09:44:51;;;;;;;31.20;18.00;;;;;;;;;;5075083;28;20055;-77
2023/04/09 09:47:18;;;;;;;29.50;18.55;;;;;;;;;;5081452;28;20089;-77
2023/04/09 09:49:45;;;;;;;28.58;17.42;;;;;;;;;;5090502;28;20036;-77
2023/04/09 09:52:11;;;;;;;34.10;19.95;;;;;;;;;;5080271;28;20402;-77
2023/04/09 09:54:43;;;;;;;30.95;19.65;;;;;;;;;;5086884;28;20199;-77
2023/04/09 09:57:12;;;;;;;31.25;19.25;;;;;;;;;;5090008;28;20058;-77
2023/04/09 09:59:41;;;;;;;31.23;19.08;;;;;;;;;;5088103;28;20560;-77
2023/04/09 10:02:12;;;;;;;32.78;20.30;;;;;;;;;;5085276;28;20040;-76
2023/04/09 10:04:40;;;;;;;33.95;19.58;;;;;;;;;;5084198;28;20490;-76
2023/04/09 10:07:07;;;;;;;31.90;20.05;;;;;;;;;;5083886;28;20548;-76
2023/04/09 10:09:40;;;;;;;32.90;20.13;;;;;;;;;;5075403;28;20039;-77
2023/04/09 10:12:07;;;;;;;34.10;19.60;;;;;;;;;;5076554;28;20405;-77
2023/04/09 10:14:34;;;;;;;32.65;19.92;;;;;;;;;;5084568;28;20096;-77
2023/04/09 10:17:02;;;;;;;31.88;19.75;;;;;;;;;;5091338;28;20063;-77
2023/04/09 10:19:29;;;;;;;31.70;19.83;;;;;;;;;;5074384;28;20094;-76
2023/04/09 10:22:01;;;;;;;35.80;21.40;;;;;;;;;;5073874;28;20513;-76
2023/04/09 10:24:27;;;;;;;32.80;20.95;;;;;;;;;;5072262;28;20041;-77
2023/04/09 10:26:54;;;;;;;33.33;19.90;;;;;;;;;;5086101;28;20040;-77
2023/04/09 10:29:26;;;;;;;35.42;20.20;;;;;;;;;;5093822;28;20044;-76
2023/04/09 10:32:05;;;;;;;35.00;20.63;;;;;;;;;;5093814;28;20056;-76
2023/04/09 10:34:38;;;;;;;35.25;20.58;;;;;;;;;;5094617;28;20044;-76
2023/04/09 10:37:06;;;;;;;32.33;20.85;;;;;;;;;;5091826;28;20083;-76
2023/04/09 10:39:32;;;;;;;33.97;19.85;;;;;;;;;;5094161;28;20043;-77
2023/04/09 10:42:07;;;;;;;35.10;20.88;;;;;;;;;;5093456;28;20119;-76
2023/04/09 10:44:36;;;;;;;34.28;21.02;;;;;;;;;;5093394;28;20532;-76
2023/04/09 10:47:05;;;;;;;36.22;22.17;;;;;;;;;;5073584;28;20044;-77
2023/04/09 10:49:41;;;;;;;32.50;20.23;;;;;;;;;;5087013;28;20054;-77
2023/04/09 10:52:12;;;;;;;36.58;21.92;;;;;;;;;;5058454;28;20075;-76
2023/04/09 10:54:47;;;;;;;33.50;21.20;;;;;;;;;;5088079;28;20044;-76
2023/04/09 10:57:20;;;;;;;33.90;20.90;;;;;;;;;;5092697;28;20127;-76
2023/04/09 10:59:53;;;;;;;36.25;21.77;;;;;;;;;;5075957;28;20126;-75
2023/04/09 11:02:26;;;;;;;37.65;22.83;;;;;;;;;;5083454;28;20044;-76
2023/04/09 11:04:52;;;;;;;36.35;21.55;;;;;;;;;;5092355;28;20516;-77
2023/04/09 11:07:19;;;;;;;34.38;21.95;;;;;;;;;;5076119;28;20072;-77
2023/04/09 11:09:45;;;;;;;34.00;21.98;;;;;;;;;;5093391;28;20044;-77
2023/04/09 11:12:11;;;;;;;32.47;20.73;;;;;;;;;;5093527;28;20121;-76
2023/04/09 11:14:37;;;;;;;33.72;21.42;;;;;;;;;;5093598;28;20044;-76
2023/04/09 11:17:03;;;;;;;33.03;21.92;;;;;;;;;;5092981;28;20056;-76
2023/04/09 11:19:29;;;;;;;37.10;22.25;;;;;;;;;;5093401;28;20079;-77
2023/04/09 11:21:55;;;;;;;32.47;21.02;;;;;;;;;;5080261;28;20235;-77
2023/04/09 11:24:22;;;;;;;32.88;21.15;;;;;;;;;;5091742;28;20393;-77
2023/04/09 11:26:49;;;;;;;35.72;21.58;;;;;;;;;;5084274;28;20123;-76
2023/04/09 11:29:15;;;;;;;36.40;23.00;;;;;;;;;;5091977;28;20123;-77
2023/04/09 11:31:44;;;;;;;33.50;22.60;;;;;;;;;;5080913;28;20461;-76
2023/04/09 11:34:11;;;;;;;33.92;21.45;;;;;;;;;;5081949;28;20052;-77
2023/04/09 11:36:37;;;;;;;33.92;21.80;;;;;;;;;;5092413;28;20477;-77
2023/04/09 11:39:05;;;;;;;31.40;19.80;;;;;;;;;;5090475;28;20467;-76
2023/04/09 11:41:34;;;;;;;31.75;21.08;;;;;;;;;;5091751;28;20049;-77
2023/04/09 11:44:04;;;;;;;31.52;20.65;;;;;;;;;;5077179;28;20052;-77
2023/04/09 11:46:33;;;;;;;33.97;22.75;;;;;;;;;;5086989;28;20085;-77
2023/04/09 11:48:59;;;;;;;32.22;21.10;;;;;;;;;;5095999;28;20051;-76
2023/04/09 11:51:26;;;;;;;34.08;21.70;;;;;;;;;;5095059;28;20052;-77
2023/04/09 11:53:52;;;;;;;33.88;20.98;;;;;;;;;;5076368;28;20040;-77
2023/04/09 11:56:19;;;;;;;33.88;21.23;;;;;;;;;;5077068;28;20080;-77
2023/04/09 11:58:46;;;;;;;31.58;20.63;;;;;;;;;;5076711;28;20067;-77
2023/04/09 12:01:12;;;;;;;33.25;21.85;;;;;;;;;;5079069;28;20052;-76
2023/04/09 12:03:38;;;;;;;31.27;21.27;;;;;;;;;;5096354;28;20048;-76
2023/04/09 12:06:05;;;;;;;32.70;21.83;;;;;;;;;;5092278;28;20048;-76
2023/04/09 12:08:34;;;;;;;32.63;21.15;;;;;;;;;;5076375;28;20048;-76
2023/04/09 12:11:13;;;;;;;31.13;20.38;;;;;;;;;;5076595;28;20119;-77
2023/04/09 12:13:43;;;;;;;33.60;21.80;;;;;;;;;;5084141;28;20572;-77
2023/04/09 12:16:10;;;;;;;32.50;21.42;;;;;;;;;;5084907;28;20525;-76
2023/04/09 12:18:37;;;;;;;32.35;21.17;;;;;;;;;;5090667;28;20032;-77
2023/04/09 12:21:03;;;;;;;31.50;21.20;;;;;;;;;;5095867;28;20047;-76
2023/04/09 12:23:30;;;;;;;31.48;20.85;;;;;;;;;;5096306;28;20088;-77
2023/04/09 12:25:59;;;;;;;31.73;21.23;;;;;;;;;;5092067;28;20051;-76
2023/04/09 12:28:25;;;;;;;29.50;21.15;;;;;;;;;;5096023;28;20068;-76
2023/04/09 12:30:51;;;;;;;29.75;20.77;;;;;;;;;;5095772;28;20047;-76
2023/04/09 12:33:17;;;;;;;30.60;20.20;;;;;;;;;;5092861;28;20497;-76
2023/04/09 12:35:43;;;;;;;29.85;21.67;;;;;;;;;;5095913;28;20044;-77
2023/04/09 12:38:10;;;;;;;29.13;19.77;;;;;;;;;;5096527;28;20054;-77
2023/04/09 12:40:36;;;;;;;28.73;20.08;;;;;;;;;;5096123;28;20052;-76
2023/04/09 12:43:02;;;;;;;28.92;19.45;;;;;;;;;;5096378;28;20040;-76
2023/04/09 12:45:29;;;;;;;27.38;18.63;;;;;;;;;;5081956;28;20040;-77
2023/04/09 12:47:55;;;;;;;27.45;19.38;;;;;;;;;;5081099;28;20032;-77
2023/04/09 12:50:21;;;;;;;28.38;19.23;;;;;;;;;;5083054;28;20147;-77
2023/04/09 12:52:47;;;;;;;27.38;18.13;;;;;;;;;;5079403;28;20075;-77
2023/04/09 12:55:14;;;;;;;29.15;19.83;;;;;;;;;;5081520;28;20127;-77
2023/04/09 12:57:42;;;;;;;26.40;18.38;;;;;;;;;;5101386;28;20048;-77
2023/04/09 13:00:08;;;;;;;26.77;18.98;;;;;;;;;;5095832;28;20044;-78
2023/04/09 13:02:35;;;;;;;25.20;18.50;;;;;;;;;;5077102;28;20048;-77
2023/04/09 13:05:01;;;;;;;26.00;18.13;;;;;;;;;;5078281;28;20119;-78
2023/04/09 13:07:28;;;;;;;25.75;18.65;;;;;;;;;;5075888;28;20052;-77
2023/04/09 13:09:55;;;;;;;32.70;19.70;;;;;;;;;;5082290;28;20040;-77
2023/04/09 13:12:21;;;;;;;25.67;17.10;;;;;;;;;;5094981;28;20155;-78
2023/04/09 13:14:47;;;;;;;27.80;18.10;;;;;;;;;;5089506;28;20478;-77
2023/04/09 13:17:14;;;;;;;24.38;16.92;;;;;;;;;;5079186;28;20079;-77
2023/04/09 13:19:40;;;;;;;22.58;15.88;;;;;;;;;;5086227;28;20125;-78
2023/04/09 13:22:07;;;;;;;24.38;16.55;;;;;;;;;;5093820;28;20047;-77
2023/04/09 13:24:35;;;;;;;25.30;17.15;;;;;;;;;;5081008;28;20045;-78
2023/04/09 13:27:01;;;;;;;23.35;16.42;;;;;;;;;;5087332;28;20044;-78
2023/04/09 13:29:28;;;;;;;22.02;15.75;;;;;;;;;;5094504;28;20066;-78
2023/04/09 13:31:56;;;;;;;23.63;16.27;;;;;;;;;;5090674;28;20044;-77
2023/04/09 13:34:22;;;;;;;22.45;16.40;;;;;;;;;;5074375;28;20471;-77
2023/04/09 13:36:48;;;;;;;20.80;15.77;;;;;;;;;;5090212;28;20133;-76
2023/04/09 13:39:14;;;;;;;26.63;16.75;;;;;;;;;;5094730;28;20465;-77
2023/04/09 13:41:40;;;;;;;21.88;15.85;;;;;;;;;;5094974;28;20501;-76
2023/04/09 13:44:06;;;;;;;23.48;17.13;;;;;;;;;;5086592;28;20072;-77
2023/04/09 13:46:32;;;;;;;22.98;16.25;;;;;;;;;;5089884;28;20054;-76
2023/04/09 13:48:58;;;;;;;21.90;16.25;;;;;;;;;;5076571;28;20044;-76
2023/04/09 13:51:25;;;;;;;23.90;16.52;;;;;;;;;;5094016;28;20039;-75
2023/04/09 13:53:51;;;;;;;24.13;15.82;;;;;;;;;;5094919;28;20088;-75
2023/04/09 13:56:17;;;;;;;23.15;16.13;;;;;;;;;;5094346;28;20055;-75
2023/04/09 13:58:43;;;;;;;22.85;16.25;;;;;;;;;;5082662;28;20428;-75
2023/04/09 14:01:10;;;;;;;23.48;15.50;;;;;;;;;;5094178;28;20044;-76
2023/04/09 14:03:39;;;;;;;24.10;17.13;;;;;;;;;;5098317;28;20048;-77
2023/04/09 14:06:09;;;;;;;22.67;16.08;;;;;;;;;;5099587;28;20043;-77
2023/04/09 14:08:35;;;;;;;22.23;15.93;;;;;;;;;;5095770;28;20123;-76
2023/04/09 14:11:01;;;;;;;22.02;15.82;;;;;;;;;;5080504;28;20511;-75
2023/04/09 14:13:27;;;;;;;21.42;15.60;;;;;;;;;;5088853;28;20123;-75
2023/04/09 14:15:53;;;;;;;21.65;15.40;;;;;;;;;;5090854;28;20477;-76
2023/04/09 14:18:19;;;;;;;19.88;15.20;;;;;;;;;;5094197;28;20093;-76
2023/04/09 14:20:45;;;;;;;23.35;16.65;;;;;;;;;;5092781;28;20044;-76